Terminal Aerodrome Forecast
Issued by NWS Charleston, WV

Current Version | Previous Version | Text Only | Print | Product List | Glossary Off
Versions: 1 2 3 4 5 6 7 8 9 10 11 12 13 14 15 16 17 18 19 20 21 22 23 24 25 26

000
FTUS41 KRLX 210500 AAA
TAFBKW
TAF AMD
KBKW 210533Z 2106/2206 00000KT P6SM SCT008 BKN035
     FM210800 00000KT P6SM BKN035
     FM211300 00000KT P6SM SKC
     FM211800 13004KT P6SM SKC
     FM212300 12004KT P6SM SCT025
     FM220400 13005KT P6SM BKN020=

USA.gov is the U.S. government's official web portal to all federal, state and local government web resources and services.